Date High Temp Low Temp Barometric Pressure Relative Humidity AM Temp Moisture Snow Notes
2/13/19 22 5 29.80 76% 21
2/12/19 19 5 30.00 66% 5 .08″ 1″
2/11/19 19 1 30.04 74% 18 .27″ 3″
2/10/19 12 -11 30.40 69% 0
2/9/19 5 -18 30.44 69% -11
2/8/19 1 -18 30.44 69% -18
2/7/19 4 -9 30.06 69% .14″ 1″
2/6/19 13 -5 30.06 69% 3 .26″ 3.5″
2/5/19 10 0 30.00 69% 6 .12″ 2″
2/4/19 4 -20 30.20 69% -5 .42″ 4.25″
2/3/19 20 3 29.94 69% 3 Trace Trace
2/2/19 29 -8 29.96 81% 18
2/1/19 11 -30 30.08 56% -8 .06″ 1″
1/31/19 -8 -29 30.06 56% -30
1/30/19 -16 -30 30.00 56% -27
1/29/19 -13 -27 29.92 56% -13
1/28/19 4 -12 30.00 56% -4
1/27/19 7 -11 30.00 56% -21
1/26/19 -3 -28 30.02 56% -22
1/25/19 -11 -22 29.98 56% -21
1/24/19 2 -21 29.95 56% 2
1/23/19 16 2 29.96 60% 12 .08″ 1″
1/22/19 17 9 30.06 68% 15 .02″ .50″
1/21/19 15 -2 30.28 58% -2 .26″ 4″
1/20/19 -3 -25 30.29 58% -22 Trace Trace
1/19/19 -5 -23 30.25 58% -23
1/18/19 10 -26 30.20 58% -11
1/17/19 10 -13 30.10 58% 3
1/16/19 7 -8 30.19 58% -3
1/15/19 22 -7 29.94 81% 22 .09″ .25″
1/14/19 25 7 30.17 80% 24
1/13/19 27 23 30.30 82% 23 .05″ .60″
1/12/19 23 18 30.36 76% 18
1/11/19 21 16 30.20 81% 20 Trace Trace
1/10/19 20 -2 30.30 58% -2 .09″ 1.25″
1/9/19 17 -5 30.10 58% 5
1/8/19 17 5 30.00 60% 8 .08″ .50″
1/7/19 33 16 29.80 62% 17 Trace Trace
1/6/19 31 10 29.80 75% 20 Trace Trace
1/5/19 33 0 29.80 98% 29 .40″ 4.5″
1/4/19 33 14 29.90 94% 33
1/3/19 32 10 29.92 94% 21
1/2/19 12 -6 29.98 86% 4
1/1/19 2 -15 29.98 69% 0